Time;durP1;ratioP1;P1;durP2;ratioP2;P2;SDS_P1;SDS_P2;PMS_P1;PMS_P2;Temp;Humidity;BMP_temperature;BMP_pressure;BME280_temperature;BME280_humidity;BME280_pressure;Samples;Min_cycle;Max_cycle;Signal;HPM_P1;HPM_P2
2021/03/17 00:03:34;;;;;;;18.62;12.58;;;;;;;11.76;41.78;99853.07;2387031;81;25557;-85
2021/03/17 00:07:15;;;;;;;20.68;12.95;;;;;;;11.72;41.79;99860.00;2378377;82;25706;-90
2021/03/17 00:10:58;;;;;;;21.35;12.35;;;;;;;11.69;41.84;99873.02;2389013;82;25876;-84
2021/03/17 00:14:39;;;;;;;16.00;10.85;;;;;;;11.65;41.82;99868.62;2390874;82;25502;-81
2021/03/17 00:18:22;;;;;;;21.97;12.15;;;;;;;11.61;41.86;99868.55;2359277;82;25439;-82
2021/03/17 00:22:03;;;;;;;16.10;11.50;;;;;;;11.57;41.89;99875.48;2380926;82;25509;-90
2021/03/17 00:25:43;;;;;;;20.48;11.85;;;;;;;11.54;41.92;99868.92;2382270;81;25342;-90
2021/03/17 00:29:26;;;;;;;19.80;11.18;;;;;;;11.49;41.95;99861.05;2340994;82;25819;-91
2021/03/17 00:33:12;;;;;;;17.35;11.73;;;;;;;11.46;41.97;99862.31;2384975;82;25805;-86
2021/03/17 00:36:54;;;;;;;17.80;11.40;;;;;;;11.43;42.00;99861.40;2377666;82;25668;-85
2021/03/17 00:40:35;;;;;;;22.40;11.05;;;;;;;11.38;42.03;99856.14;2382073;82;25563;-88
2021/03/17 00:44:17;;;;;;;21.57;12.05;;;;;;;11.35;42.06;99861.32;2389654;82;25562;-86
2021/03/17 00:47:59;;;;;;;17.67;10.70;;;;;;;11.31;42.11;99857.80;2377004;81;25423;-87
2021/03/17 00:51:22;;;;;;;15.55;10.85;;;;;;;11.26;42.13;99864.67;2367882;82;25788;-88
2021/03/17 00:55:03;;;;;;;19.75;11.25;;;;;;;11.24;42.15;99860.33;2377407;82;25456;-84
2021/03/17 00:58:30;;;;;;;15.93;10.68;;;;;;;11.20;42.19;99861.98;2373356;82;25850;-83
2021/03/17 01:01:51;;;;;;;19.48;10.90;;;;;;;11.18;42.23;99865.45;2351374;82;25864;-91
2021/03/17 01:05:13;;;;;;;17.65;10.23;;;;;;;11.15;42.25;99868.89;2380208;82;25372;-90
2021/03/17 01:08:35;;;;;;;14.60;9.33;;;;;;;11.12;42.29;99868.85;2387482;82;25775;-90
2021/03/17 01:12:01;;;;;;;14.10;9.75;;;;;;;11.08;42.32;99871.84;2380050;82;25646;-91
2021/03/17 01:15:26;;;;;;;19.55;10.38;;;;;;;11.05;42.35;99869.20;2377728;82;25813;-89
2021/03/17 01:18:48;;;;;;;16.15;10.13;;;;;;;11.04;42.40;99870.50;2386325;82;25458;-86
2021/03/17 01:22:12;;;;;;;26.55;9.78;;;;;;;11.00;42.41;99863.46;2376146;82;25597;-94
2021/03/17 01:25:39;;;;;;;15.48;10.20;;;;;;;10.97;42.43;99861.71;2374760;82;25450;-85
2021/03/17 01:29:02;;;;;;;14.10;10.03;;;;;;;10.94;42.46;99859.06;2358661;82;25663;-89
2021/03/17 01:32:24;;;;;;;14.75;9.38;;;;;;;10.91;42.48;99860.75;2364134;82;25828;-83
2021/03/17 01:35:48;;;;;;;12.43;9.05;;;;;;;10.87;42.52;99864.62;2386771;82;25674;-83
2021/03/17 01:39:10;;;;;;;14.45;9.48;;;;;;;10.85;42.54;99858.92;2355467;82;25846;-83
2021/03/17 01:42:34;;;;;;;17.40;9.33;;;;;;;10.81;42.56;99860.61;2363728;82;25447;-94
2021/03/17 01:45:57;;;;;;;12.30;9.75;;;;;;;10.79;42.58;99857.09;2349987;82;25263;-88
2021/03/17 01:49:57;;;;;;;16.87;9.60;;;;;;;10.76;42.63;99862.26;2372599;82;25771;-87
2021/03/17 01:53:48;;;;;;;14.18;9.85;;;;;;;10.73;42.64;99861.34;2399833;81;25617;-85
2021/03/17 01:57:17;;;;;;;15.95;9.83;;;;;;;10.70;42.68;99863.90;2316499;84;25825;-91
2021/03/17 02:01:11;;;;;;;17.23;9.08;;;;;;;10.66;42.70;99866.89;2305524;83;25439;-87
2021/03/17 02:04:38;;;;;;;13.60;9.40;;;;;;;10.62;42.72;99862.06;2313688;84;25738;-87
2021/03/17 02:08:05;;;;;;;15.30;9.00;;;;;;;10.58;42.76;99866.78;2316068;84;25760;-85
2021/03/17 02:11:28;;;;;;;14.78;8.85;;;;;;;10.56;42.76;99865.00;2226886;86;25652;-85
2021/03/17 02:15:28;;;;;;;12.75;7.92;;;;;;;10.53;42.80;99867.55;2235066;86;26040;-88
2021/03/17 02:31:26;;;;;;;11.73;8.83;;;;;;;10.39;42.94;99862.13;2566767;75;25672;-91
2021/03/17 02:34:54;;;;;;;13.28;7.92;;;;;;;10.30;42.96;99861.58;2419281;81;25823;-90
2021/03/17 03:03:55;;;;;;;12.98;9.03;;;;;;;10.04;43.19;99868.91;2418862;79;25688;-92
2021/03/17 03:07:28;;;;;;;12.30;8.65;;;;;;;10.03;43.23;99868.89;2237725;87;25465;-85
2021/03/17 03:10:50;;;;;;;9.65;8.48;;;;;;;10.00;43.25;99868.84;2235132;86;25883;-86
2021/03/17 03:14:15;;;;;;;11.38;8.90;;;;;;;9.98;43.27;99873.13;2266234;85;26188;-83
2021/03/17 03:17:40;;;;;;;10.03;7.60;;;;;;;9.97;43.31;99879.20;2309440;85;25931;-88
2021/03/17 03:21:07;;;;;;;14.33;7.72;;;;;;;9.94;43.32;99878.71;2298565;85;25400;-86
2021/03/17 03:24:29;;;;;;;10.30;8.23;;;;;;;9.93;43.36;99886.95;2300521;85;25762;-87
2021/03/17 03:27:55;;;;;;;9.03;7.65;;;;;;;9.92;43.39;99885.20;2304448;84;25721;-89
2021/03/17 03:31:28;;;;;;;;;;;;;;;;;;;;;
2021/03/17 03:35:17;;;;;;;9.10;7.23;;;;;;;9.94;43.44;99885.22;2580676;75;25694;-88
2021/03/17 03:38:42;;;;;;;7.75;6.75;;;;;;;9.88;43.42;99892.91;2554430;76;25664;-88
2021/03/17 03:42:04;;;;;;;8.78;7.62;;;;;;;9.87;43.42;99894.64;2549025;76;25698;-90
2021/03/17 03:45:27;;;;;;;8.60;7.03;;;;;;;9.87;43.42;99893.77;2513659;78;25638;-84
2021/03/17 03:48:52;;;;;;;10.90;8.03;;;;;;;9.85;43.41;99898.94;2466061;79;25430;-89
2021/03/17 03:52:18;;;;;;;11.90;7.97;;;;;;;9.86;43.44;99906.34;2490779;78;25674;-87
2021/03/17 03:55:46;;;;;;;11.43;8.58;;;;;;;9.83;43.42;99912.37;2390148;81;25778;-89
2021/03/17 03:59:17;;;;;;;12.63;8.88;;;;;;;9.80;43.44;99912.30;2490244;78;25585;-86
2021/03/17 04:02:44;;;;;;;13.97;8.83;;;;;;;9.78;43.45;99907.91;2413608;79;25358;-85
2021/03/17 04:06:09;;;;;;;16.15;9.23;;;;;;;9.76;43.50;99925.24;2460081;79;25817;-90
2021/03/17 04:09:44;;;;;;;12.82;8.48;;;;;;;9.74;43.56;99917.38;2475650;79;25370;-88
2021/03/17 04:13:08;;;;;;;12.73;9.13;;;;;;;9.72;43.58;99919.50;2421313;79;25835;-89
2021/03/17 04:16:32;;;;;;;13.48;8.65;;;;;;;9.72;43.61;99939.02;2447157;79;25300;-90
2021/03/17 04:20:08;;;;;;;11.53;8.40;;;;;;;9.69;43.66;99936.83;2432433;79;25517;-90
2021/03/17 04:23:31;;;;;;;11.85;8.25;;;;;;;9.69;43.65;99943.34;2469440;79;25870;-87
2021/03/17 04:26:57;;;;;;;9.48;8.45;;;;;;;9.68;43.68;99932.45;2436124;79;25512;-88
2021/03/17 04:30:25;;;;;;;10.50;8.70;;;;;;;9.67;43.73;99929.83;2423290;79;25784;-87
2021/03/17 04:33:50;;;;;;;13.93;8.58;;;;;;;9.65;43.77;99935.41;2436498;79;25622;-88
2021/03/17 04:37:12;;;;;;;11.63;8.68;;;;;;;9.65;43.77;99936.72;2428785;79;25496;-84
2021/03/17 04:40:36;;;;;;;10.30;7.67;;;;;;;9.65;43.78;99929.81;2451189;79;25398;-87
2021/03/17 04:43:58;;;;;;;12.35;8.33;;;;;;;9.64;43.79;99941.05;2456888;79;25634;-86
2021/03/17 04:47:20;;;;;;;10.68;7.85;;;;;;;9.64;43.82;99938.88;2440270;79;25464;-86
2021/03/17 04:50:47;;;;;;;10.90;8.33;;;;;;;9.64;43.82;99938.88;2466332;79;25647;-86
2021/03/17 04:54:10;;;;;;;7.95;6.92;;;;;;;9.63;43.85;99938.00;2428798;79;25757;-88
2021/03/17 04:57:36;;;;;;;7.47;6.65;;;;;;;9.64;43.87;99938.88;2433540;79;25661;-87
2021/03/17 05:01:01;;;;;;;8.50;6.85;;;;;;;9.65;43.83;99948.42;2436767;79;25869;-90
2021/03/17 05:04:23;;;;;;;9.43;6.42;;;;;;;9.63;43.87;99952.31;2433991;79;25596;-88
2021/03/17 05:07:46;;;;;;;10.58;6.22;;;;;;;9.64;43.86;99951.45;2442051;79;25979;-88
2021/03/17 05:11:17;;;;;;;9.98;6.40;;;;;;;9.64;43.85;99945.38;2432078;79;25412;-89
2021/03/17 05:14:44;;;;;;;7.80;5.78;;;;;;;9.64;43.85;99956.66;2427446;79;25820;-91
2021/03/17 05:18:10;;;;;;;7.35;5.87;;;;;;;9.63;43.84;99956.65;2454148;77;25418;-89
2021/03/17 05:21:34;;;;;;;7.70;5.83;;;;;;;9.64;43.82;99957.97;2427298;79;25975;-87
2021/03/17 05:24:57;;;;;;;6.35;5.75;;;;;;;9.64;43.86;99966.20;2430042;79;25366;-86
2021/03/17 05:28:19;;;;;;;8.15;6.33;;;;;;;9.64;43.87;99969.67;2443433;79;26490;-87
2021/03/17 05:31:42;;;;;;;7.45;5.78;;;;;;;9.65;43.86;99964.05;2442545;79;25706;-89
2021/03/17 05:35:08;;;;;;;9.10;6.28;;;;;;;9.65;43.86;99970.55;2453956;79;25571;-88
2021/03/17 05:38:53;;;;;;;7.37;6.20;;;;;;;9.69;43.85;99969.80;2606248;76;28236;-89
2021/03/17 05:42:15;;;;;;;7.15;5.95;;;;;;;9.64;43.87;99973.58;2468788;80;25326;-87
2021/03/17 05:45:38;;;;;;;10.60;5.67;;;;;;;9.65;43.88;99971.85;2513183;78;25524;-89
2021/03/17 05:49:06;;;;;;;5.55;4.95;;;;;;;9.67;43.86;99979.28;2513250;78;25729;-89
2021/03/17 05:52:28;;;;;;;6.03;5.45;;;;;;;9.68;43.86;99980.59;2513227;78;25550;-87
2021/03/17 05:55:51;;;;;;;5.87;5.28;;;;;;;9.68;43.80;99987.53;2513376;78;25622;-86
2021/03/17 05:59:13;;;;;;;5.87;5.28;;;;;;;9.69;43.82;99984.98;2513395;78;25148;-87
2021/03/17 06:02:37;;;;;;;5.60;5.03;;;;;;;9.70;43.84;99983.25;2437904;79;25783;-90
2021/03/17 06:06:08;;;;;;;5.97;5.37;;;;;;;9.73;43.81;99988.95;2468478;80;25846;-87
2021/03/17 06:09:32;;;;;;;5.03;4.62;;;;;;;9.74;43.82;99984.19;2468873;80;25662;-87
2021/03/17 06:13:00;;;;;;;5.47;4.72;;;;;;;9.76;43.77;99992.92;2468657;78;25578;-88
2021/03/17 06:16:24;;;;;;;4.97;4.47;;;;;;;9.76;43.79;99999.00;2469060;80;25182;-87
2021/03/17 06:19:50;;;;;;;6.42;4.80;;;;;;;9.80;43.81;99999.94;2468529;80;25383;-91
2021/03/17 06:23:15;;;;;;;6.85;4.58;;;;;;;9.82;43.79;100004.73;2468657;79;25520;-88
2021/03/17 06:26:39;;;;;;;5.62;5.10;;;;;;;9.84;43.77;100010.87;2336072;84;26116;-89
2021/03/17 06:30:07;;;;;;;5.58;4.90;;;;;;;9.84;43.76;100005.23;2223942;89;25710;-90
2021/03/17 06:33:59;;;;;;;4.60;4.20;;;;;;;9.92;43.77;100013.19;2593977;76;25126;-90
2021/03/17 06:37:37;;;;;;;5.95;4.87;;;;;;;9.89;43.75;100015.77;2562067;77;25359;-87
2021/03/17 06:41:00;;;;;;;4.90;4.50;;;;;;;9.90;43.76;100015.78;2466204;79;25596;-88
2021/03/17 06:44:25;;;;;;;6.47;5.87;;;;;;;9.93;43.74;100019.75;2510773;78;25208;-88
2021/03/17 06:47:48;;;;;;;5.83;4.90;;;;;;;9.94;43.75;100016.29;2466303;80;25350;-87
2021/03/17 06:51:21;;;;;;;5.92;5.00;;;;;;;9.98;43.74;100018.95;2466246;80;25397;-86
2021/03/17 06:55:06;;;;;;;6.05;4.53;;;;;;;10.00;43.72;100017.27;2465775;80;25555;-87
2021/03/17 06:58:50;;;;;;;6.28;5.05;;;;;;;10.04;43.71;100025.59;2466237;80;25391;-89
2021/03/17 07:02:18;;;;;;;6.45;4.70;;;;;;;10.07;43.71;100024.36;2466015;80;25580;-88
2021/03/17 07:05:52;;;;;;;5.47;4.97;;;;;;;10.10;43.70;100023.99;2466092;80;25510;-85
2021/03/17 07:09:25;;;;;;;6.67;5.83;;;;;;;10.13;43.70;100024.48;2437218;80;25840;-87
2021/03/17 07:12:52;;;;;;;8.03;5.83;;;;;;;10.16;43.67;100029.76;2466004;80;25623;-84
2021/03/17 07:16:19;;;;;;;5.47;4.97;;;;;;;10.18;43.68;100030.64;2465923;80;25524;-87
2021/03/17 07:19:44;;;;;;;6.30;5.47;;;;;;;10.22;43.65;100027.67;2458242;80;25521;-85
2021/03/17 07:23:33;;;;;;;5.58;5.08;;;;;;;10.24;43.66;100035.98;2466103;80;25601;-86
2021/03/17 07:26:55;;;;;;;5.83;5.08;;;;;;;10.27;43.59;100039.11;2466157;80;25545;-86
2021/03/17 07:30:18;;;;;;;5.35;4.83;;;;;;;10.29;43.57;100037.39;2465744;80;25687;-86
2021/03/17 07:33:42;;;;;;;5.50;5.00;;;;;;;10.28;43.60;100034.34;2472871;80;25499;-87
2021/03/17 07:37:13;;;;;;;6.33;5.53;;;;;;;10.30;43.61;100037.87;2474399;80;25330;-86
2021/03/17 07:40:43;;;;;;;5.20;4.70;;;;;;;10.31;43.60;100040.92;2474242;80;25658;-87
2021/03/17 07:44:14;;;;;;;5.28;4.75;;;;;;;10.33;43.64;100035.33;2472132;80;25608;-86
2021/03/17 07:47:37;;;;;;;5.85;5.37;;;;;;;10.34;43.64;100043.59;2473509;80;25588;-87
2021/03/17 07:51:09;;;;;;;5.67;4.95;;;;;;;10.34;43.66;100039.68;2445673;80;25346;-87
2021/03/17 07:54:49;;;;;;;4.87;4.47;;;;;;;10.34;43.69;100040.55;2471390;80;25126;-84
2021/03/17 07:58:14;;;;;;;6.15;4.42;;;;;;;10.36;43.71;100035.35;2470819;80;25572;-79
2021/03/17 08:01:41;;;;;;;5.17;4.67;;;;;;;10.37;43.71;100042.34;2473892;80;25689;-87
2021/03/17 08:05:05;;;;;;;5.70;4.45;;;;;;;10.40;43.71;100040.67;2473462;80;26267;-88
2021/03/17 08:08:29;;;;;;;6.55;4.72;;;;;;;10.43;43.72;100038.56;2445481;80;25730;-88
2021/03/17 08:11:58;;;;;;;5.97;4.45;;;;;;;10.46;43.71;100041.22;2463711;78;25690;-85
2021/03/17 08:15:21;;;;;;;4.65;4.17;;;;;;;10.51;43.72;100038.69;2492830;78;25586;-85
2021/03/17 08:18:44;;;;;;;5.30;4.58;;;;;;;10.55;43.67;100053.09;2519350;78;25543;-87
2021/03/17 08:22:09;;;;;;;4.47;3.58;;;;;;;10.59;43.65;100048.81;2519041;78;25627;-81
2021/03/17 08:25:45;;;;;;;5.17;4.67;;;;;;;10.62;43.67;100052.36;2519255;78;25624;-88
2021/03/17 08:29:12;;;;;;;4.12;3.72;;;;;;;10.69;43.62;100045.95;2491777;78;25171;-84
2021/03/17 08:33:03;;;;;;;4.70;4.30;;;;;;;10.77;43.58;100050.47;2314888;85;25846;-88
2021/03/17 08:36:31;;;;;;;4.33;3.93;;;;;;;10.84;43.52;100051.45;2345422;83;25665;-85
2021/03/17 08:39:57;;;;;;;4.83;3.87;;;;;;;10.91;43.43;100048.52;2341454;84;25728;-86
2021/03/17 08:44:17;;;;;;;5.28;3.90;;;;;;;10.94;43.40;100045.97;2204206;88;25743;-83
2021/03/17 08:47:53;;;;;;;3.75;3.45;;;;;;;11.00;43.35;100040.42;2172219;91;25688;-87
2021/03/17 08:51:17;;;;;;;5.25;3.62;;;;;;;11.11;43.26;100044.08;2291859;85;25619;-85
2021/03/17 08:54:58;;;;;;;6.25;3.90;;;;;;;11.22;43.16;100045.54;2334240;84;25320;-86
2021/03/17 08:59:22;;;;;;;3.55;3.02;;;;;;;11.34;43.05;100037.91;2343586;84;25679;-86
2021/03/17 09:02:50;;;;;;;4.00;3.35;;;;;;;11.45;42.90;100042.41;2470637;79;25488;-87
2021/03/17 09:06:16;;;;;;;4.20;3.20;;;;;;;11.53;42.81;100039.47;2421992;80;25351;-87
2021/03/17 09:10:07;;;;;;;3.45;3.15;;;;;;;11.59;42.72;100041.73;2426402;81;25714;-85
2021/03/17 09:13:51;;;;;;;2.98;2.67;;;;;;;11.69;42.66;100047.97;2380816;83;25377;-87
2021/03/17 09:17:23;;;;;;;3.37;3.02;;;;;;;11.78;42.56;100045.49;2380670;83;25941;-84
2021/03/17 09:24:39;;;;;;;3.65;3.25;;;;;;;11.93;42.42;100047.45;2291182;83;25568;-87
2021/03/17 09:57:28;;;;;;;3.05;2.75;;;;;;;12.16;42.15;100063.41;2324052;83;25506;-82
2021/03/17 10:01:04;;;;;;;;;;;;;;;;;;;;;
2021/03/17 10:05:02;;;;;;;3.02;2.33;;;;;;;12.18;42.19;100065.62;2305892;82;25738;-81
2021/03/17 10:13:36;;;;;;;4.35;2.58;;;;;;;12.21;42.13;100064.33;2356434;83;26046;-82
2021/03/17 10:17:05;;;;;;;3.08;2.87;;;;;;;12.22;42.10;100070.46;2314895;83;26785;-78
2021/03/17 10:20:44;;;;;;;2.98;2.47;;;;;;;12.20;42.10;100078.70;2289323;83;25461;-81
2021/03/17 10:35:20;;;;;;;2.77;2.57;;;;;;;12.35;42.08;100077.59;2430747;78;25520;-80
2021/03/17 10:50:42;;;;;;;2.37;2.17;;;;;;;12.34;42.02;100078.42;2468013;78;25355;-80
2021/03/17 10:54:47;;;;;;;3.17;2.50;;;;;;;12.24;42.08;100083.97;2416115;81;25642;-82
2021/03/17 10:59:29;;;;;;;2.70;2.17;;;;;;;12.23;42.11;100077.00;2367239;82;25792;-81
2021/03/17 11:07:20;;;;;;;2.35;1.92;;;;;;;12.25;42.13;100081.83;2376786;83;25687;-81
2021/03/17 11:33:18;;;;;;;2.77;2.40;;;;;;;12.35;42.08;100079.30;2218087;87;25850;-77
2021/03/17 11:37:39;;;;;;;3.00;2.70;;;;;;;12.45;42.04;100078.54;2508552;77;28121;-81
2021/03/17 11:41:02;;;;;;;2.70;2.40;;;;;;;12.54;41.97;100083.88;2490141;79;25736;-77
2021/03/17 11:44:23;;;;;;;3.98;2.25;;;;;;;12.59;41.84;100067.83;2486918;79;25662;-80
2021/03/17 11:47:49;;;;;;;3.02;2.72;;;;;;;12.56;41.84;100073.02;2453116;79;25520;-78
2021/03/17 11:51:19;;;;;;;6.15;2.55;;;;;;;12.51;41.85;100082.09;2443431;81;25681;-79
2021/03/17 11:54:40;;;;;;;4.55;2.50;;;;;;;12.47;41.89;100079.45;2442963;80;25595;-76
2021/03/17 11:58:05;;;;;;;2.08;1.95;;;;;;;12.47;41.92;100072.91;2443137;81;25536;-77
2021/03/17 12:01:30;;;;;;;5.65;3.42;;;;;;;12.53;41.94;100071.23;2443394;79;26381;-80
2021/03/17 12:04:52;;;;;;;9.95;3.62;;;;;;;12.62;45.70;100068.26;2454118;78;25824;-81
2021/03/17 12:08:17;;;;;;;3.12;2.83;;;;;;;12.81;49.94;100075.44;2487229;79;25618;-82
2021/03/17 12:11:43;;;;;;;6.12;2.85;;;;;;;12.98;50.16;100070.36;2487140;79;25626;-79
2021/03/17 12:15:13;;;;;;;3.33;3.02;;;;;;;12.74;49.14;100070.57;2485723;79;25625;-78
2021/03/17 12:18:35;;;;;;;4.83;3.00;;;;;;;12.43;50.63;100083.77;2486867;79;25665;-78
2021/03/17 12:21:57;;;;;;;4.90;4.08;;;;;;;12.19;49.00;100077.83;2487153;79;25590;-78
2021/03/17 12:25:21;;;;;;;4.25;3.75;;;;;;;11.95;48.69;100073.61;2486929;79;25715;-78
2021/03/17 12:28:44;;;;;;;6.47;3.20;;;;;;;11.71;48.69;100073.69;2486365;79;25590;-77
2021/03/17 12:32:09;;;;;;;3.33;2.92;;;;;;;11.59;48.87;100070.89;2420585;81;25234;-78
2021/03/17 12:35:35;;;;;;;3.77;3.47;;;;;;;11.61;50.59;100078.73;2436349;80;25352;-89
2021/03/17 12:39:06;;;;;;;4.12;2.90;;;;;;;11.75;51.99;100070.26;2457405;78;25193;-89
2021/03/17 12:42:37;;;;;;;2.85;2.62;;;;;;;11.80;49.36;100067.27;2456510;80;25658;-85
2021/03/17 12:46:15;;;;;;;3.52;2.50;;;;;;;11.73;48.47;100072.39;2409015;81;25791;-84
2021/03/17 12:49:39;;;;;;;3.92;3.08;;;;;;;11.56;47.61;100078.24;2396692;82;25623;-88
2021/03/17 12:53:12;;;;;;;4.22;3.35;;;;;;;11.34;47.32;100079.67;2377973;82;25556;-85
2021/03/17 12:56:45;;;;;;;2.95;2.70;;;;;;;11.16;47.08;100080.66;2400888;81;25636;-85
2021/03/17 13:00:25;;;;;;;3.95;3.10;;;;;;;11.06;46.94;100086.15;2420317;80;25350;-90
2021/03/17 13:03:46;;;;;;;4.25;2.98;;;;;;;10.96;46.74;100079.02;2429041;80;25750;-90
2021/03/17 13:07:11;;;;;;;5.87;3.30;;;;;;;10.89;46.50;100088.90;2470842;80;25222;-89
2021/03/17 13:10:49;;;;;;;3.90;3.50;;;;;;;10.79;46.45;100080.03;2437376;80;25758;-88
2021/03/17 13:14:24;;;;;;;3.70;3.27;;;;;;;10.72;46.31;100089.03;2471150;80;25645;-90
2021/03/17 13:18:29;;;;;;;4.15;3.05;;;;;;;10.64;46.23;100088.89;2430852;80;25342;-88
2021/03/17 13:22:19;;;;;;;1.92;1.80;;;;;;;10.68;46.42;100103.73;2416039;81;25582;-88
2021/03/17 13:26:05;;;;;;;3.15;2.65;;;;;;;11.22;50.16;100096.42;2420678;81;25360;-84
2021/03/17 13:29:45;;;;;;;3.55;2.40;;;;;;;11.38;48.32;100097.56;2341853;83;25491;-83
2021/03/17 13:33:17;;;;;;;3.80;3.17;;;;;;;11.29;47.44;100094.80;2363352;80;25489;-85
2021/03/17 13:59:36;;;;;;;3.33;1.77;;;;;;;13.32;55.40;100106.01;2651621;72;27064;-82
2021/03/17 14:03:05;;;;;;;2.37;2.00;;;;;;;13.46;55.01;100114.84;2600271;75;25251;-80
2021/03/17 14:06:47;;;;;;;4.87;3.60;;;;;;;13.77;54.82;100123.81;2604304;75;25676;-83
2021/03/17 14:10:20;;;;;;;6.35;2.87;;;;;;;14.01;54.38;100132.69;2596819;75;29147;-77
2021/03/17 14:13:44;;;;;;;3.30;3.00;;;;;;;14.08;53.48;100118.31;2613106;74;25612;-76
2021/03/17 14:20:59;;;;;;;3.13;2.40;;;;;;;13.03;46.09;100118.80;2476895;78;30498;-77
2021/03/17 14:24:24;;;;;;;2.08;1.80;;;;;;;12.52;48.19;100118.30;2311899;83;25674;-77
2021/03/17 14:27:45;;;;;;;5.08;3.15;;;;;;;12.74;50.27;100129.86;2312595;85;25895;-77
2021/03/17 14:31:08;;;;;;;6.83;2.58;;;;;;;12.67;46.60;100125.43;2309335;84;25879;-76
2021/03/17 14:34:30;;;;;;;3.15;2.47;;;;;;;12.28;45.61;100129.31;2315546;85;25680;-76
2021/03/17 14:37:51;;;;;;;3.25;2.08;;;;;;;11.90;45.05;100128.81;2288083;85;25719;-76
2021/03/17 14:41:14;;;;;;;4.72;2.50;;;;;;;11.54;44.77;100125.66;2292870;85;25809;-77
2021/03/17 14:44:36;;;;;;;11.10;2.83;;;;;;;11.29;44.87;100126.98;2334588;83;25685;-75
2021/03/17 14:47:57;;;;;;;2.85;1.62;;;;;;;11.10;45.54;100124.51;2418377;80;25872;-76
2021/03/17 14:51:22;;;;;;;3.67;2.17;;;;;;;11.55;49.08;100134.37;2438299;80;25734;-82
2021/03/17 14:54:43;;;;;;;2.85;2.55;;;;;;;11.74;47.42;100131.16;2394594;80;25758;-82
2021/03/17 14:58:05;;;;;;;3.67;2.20;;;;;;;11.78;46.81;100139.95;2399067;80;26121;-83
2021/03/17 15:01:29;;;;;;;4.33;2.72;;;;;;;11.80;46.37;100143.00;2413003;80;25701;-82
2021/03/17 15:04:51;;;;;;;2.40;2.20;;;;;;;11.85;45.98;100139.20;2398818;81;25725;-84
2021/03/17 15:12:39;;;;;;;6.17;3.00;;;;;;;11.84;45.22;100143.96;2280023;85;25660;-83
2021/03/17 15:16:00;;;;;;;3.05;2.33;;;;;;;11.76;44.99;100146.44;2279519;85;25467;-82
2021/03/17 15:19:26;;;;;;;4.47;3.10;;;;;;;11.75;44.79;100154.27;2279504;85;25691;-83
2021/03/17 15:22:48;;;;;;;4.90;3.40;;;;;;;11.69;44.63;100166.78;2262388;85;25900;-80
2021/03/17 15:26:11;;;;;;;2.87;2.58;;;;;;;11.64;44.50;100159.29;2250862;85;25497;-84
2021/03/17 15:29:33;;;;;;;2.92;2.67;;;;;;;11.56;44.46;100168.31;2227567;85;25656;-84
2021/03/17 15:32:56;;;;;;;2.45;2.20;;;;;;;11.48;44.43;100169.06;2220993;86;25920;-86
2021/03/17 15:36:22;;;;;;;2.72;2.52;;;;;;;11.44;44.38;100178.58;2259256;86;25742;-81
2021/03/17 15:39:46;;;;;;;2.75;2.50;;;;;;;11.38;44.39;100181.51;2249765;85;26173;-81
2021/03/17 15:43:20;;;;;;;;;;;;;;;;;;;;;
2021/03/17 15:57:59;;;;;;;3.40;3.03;;;;;;;11.20;45.99;100206.41;2562788;76;25455;-79
2021/03/17 16:01:27;;;;;;;3.27;3.00;;;;;;;11.12;45.73;100202.79;2463878;79;25770;-79
2021/03/17 16:04:48;;;;;;;4.62;2.55;;;;;;;11.08;45.64;100207.50;2468416;79;25795;-82
2021/03/17 16:08:09;;;;;;;2.85;2.30;;;;;;;11.03;45.53;100212.61;2374979;82;25684;-78
2021/03/17 16:11:31;;;;;;;3.95;2.58;;;;;;;11.01;45.47;100206.51;2466412;79;25834;-84
2021/03/17 16:14:52;;;;;;;2.90;2.50;;;;;;;10.99;45.35;100222.97;2495563;78;25799;-86
2021/03/17 16:18:16;;;;;;;3.12;2.70;;;;;;;10.95;45.27;100227.68;2498502;78;25692;-80
2021/03/17 16:21:38;;;;;;;2.47;2.27;;;;;;;10.88;45.21;100226.25;2502536;78;26023;-83
2021/03/17 16:25:00;;;;;;;5.47;2.87;;;;;;;10.84;45.14;100226.17;2499312;78;25437;-80
2021/03/17 16:28:26;;;;;;;2.72;2.37;;;;;;;10.83;45.09;100227.00;2470347;78;26287;-82
2021/03/17 16:31:47;;;;;;;2.90;2.10;;;;;;;10.79;45.00;100234.31;2471692;78;25252;-81
2021/03/17 16:35:13;;;;;;;3.52;2.08;;;;;;;10.70;44.98;100233.72;2488705;78;25735;-80
2021/03/17 16:38:36;;;;;;;3.55;2.85;;;;;;;10.66;44.96;100236.20;2496005;78;25609;-82
2021/03/17 16:42:00;;;;;;;2.62;2.42;;;;;;;10.62;44.93;100241.35;2495192;77;25827;-80
2021/03/17 16:45:25;;;;;;;2.67;2.47;;;;;;;10.57;44.87;100243.00;2509989;77;25820;-82
2021/03/17 16:48:48;;;;;;;2.55;2.22;;;;;;;10.52;44.84;100247.22;2497421;77;25625;-88
2021/03/17 16:52:14;;;;;;;3.40;3.10;;;;;;;10.51;44.85;100253.29;2517084;76;25849;-79
2021/03/17 16:55:35;;;;;;;3.77;2.72;;;;;;;10.51;44.80;100255.02;2534020;77;25780;-80
2021/03/17 16:59:00;;;;;;;3.47;2.70;;;;;;;10.44;44.76;100259.65;2506927;77;25745;-85
2021/03/17 17:02:22;;;;;;;6.62;3.00;;;;;;;10.34;44.75;100260.73;2428766;80;25470;-82
2021/03/17 17:05:44;;;;;;;3.72;3.00;;;;;;;10.26;44.80;100271.81;2408830;80;25777;-86
2021/03/17 17:09:07;;;;;;;3.75;3.15;;;;;;;10.22;44.79;100273.44;2494377;79;25591;-80
2021/03/17 17:12:37;;;;;;;4.15;3.47;;;;;;;10.20;44.78;100270.36;2396466;80;25705;-81
2021/03/17 17:26:46;;;;;;;5.60;5.10;;;;;;;10.03;44.76;100288.20;2393003;81;28018;-84
2021/03/17 17:30:12;;;;;;;4.42;4.03;;;;;;;10.11;44.74;100297.06;2344523;84;25762;-82
2021/03/17 17:33:38;;;;;;;4.70;4.30;;;;;;;10.11;44.57;100297.94;2309802;85;25793;-84
2021/03/17 17:37:03;;;;;;;5.00;4.50;;;;;;;10.10;44.51;100299.22;2310059;84;25796;-82
2021/03/17 17:40:49;;;;;;;8.15;3.67;;;;;;;10.03;44.51;100299.48;2306285;85;25786;-80
2021/03/17 17:44:14;;;;;;;3.90;3.40;;;;;;;9.94;44.49;100307.95;2329774;84;25678;-87
2021/03/17 17:48:36;;;;;;;;;;;;;;;;;;;;;
2021/03/17 18:02:55;;;;;;;10.73;4.70;;;;;;;12.26;46.83;100300.52;2534216;75;26186;-89
2021/03/17 18:06:27;;;;;;;9.75;6.10;;;;;;;11.57;46.07;100306.27;2465611;78;25629;-83
2021/03/17 18:10:14;;;;;;;9.88;6.37;;;;;;;11.03;45.90;100306.52;2301703;84;25676;-84
2021/03/17 18:13:36;;;;;;;7.47;5.20;;;;;;;10.68;45.71;100307.09;2305263;84;25737;-85
2021/03/17 18:17:00;;;;;;;8.40;5.25;;;;;;;10.45;45.42;100310.48;2319222;84;25893;-81
2021/03/17 18:20:25;;;;;;;6.97;5.15;;;;;;;10.24;45.41;100319.96;2336210;84;25746;-79
2021/03/17 18:23:47;;;;;;;5.75;4.87;;;;;;;10.31;45.47;100322.33;2342884;84;26296;-82
2021/03/17 18:27:11;;;;;;;8.03;5.00;;;;;;;10.47;45.34;100323.14;2316037;84;25805;-84
2021/03/17 18:30:37;;;;;;;7.53;5.12;;;;;;;10.57;45.23;100319.91;2305065;84;32612;-82
2021/03/17 18:33:59;;;;;;;7.42;6.12;;;;;;;10.66;45.11;100311.81;2368110;79;25847;-88
2021/03/17 18:37:20;;;;;;;6.40;4.65;;;;;;;10.70;45.05;100317.16;2358289;83;25693;-84
2021/03/17 18:40:44;;;;;;;6.22;5.15;;;;;;;10.74;44.96;100315.06;2440685;80;26192;-83
2021/03/17 18:44:07;;;;;;;7.90;5.67;;;;;;;10.77;44.92;100309.91;2368377;80;25693;-80
2021/03/17 18:47:28;;;;;;;6.10;4.95;;;;;;;10.79;44.85;100311.23;2463404;79;25304;-84
2021/03/17 18:50:54;;;;;;;6.28;5.05;;;;;;;10.80;44.81;100317.80;2443400;79;25644;-81
2021/03/17 18:54:17;;;;;;;5.87;4.60;;;;;;;10.81;44.78;100317.38;2430311;79;26264;-80
2021/03/17 18:57:45;;;;;;;6.08;4.15;;;;;;;10.81;44.75;100314.77;2474772;78;25671;-82
2021/03/17 19:01:09;;;;;;;7.03;5.60;;;;;;;10.81;44.72;100318.25;2469094;78;25639;-83
2021/03/17 19:04:31;;;;;;;8.93;4.90;;;;;;;10.82;44.70;100321.73;2465125;79;25951;-83
2021/03/17 19:07:54;;;;;;;7.62;5.55;;;;;;;10.81;44.67;100322.59;2466452;79;25680;-81
2021/03/17 19:11:16;;;;;;;6.10;4.85;;;;;;;10.79;44.63;100316.02;2471361;78;25699;-83
2021/03/17 19:14:40;;;;;;;5.67;4.80;;;;;;;10.80;44.65;100320.81;2479207;79;25819;-82
2021/03/17 19:18:03;;;;;;;7.53;4.97;;;;;;;10.79;44.63;100325.58;2471053;79;25583;-82
2021/03/17 19:21:28;;;;;;;4.95;4.45;;;;;;;10.78;44.65;100320.80;2472772;79;25892;-83
2021/03/17 19:24:51;;;;;;;5.20;4.70;;;;;;;10.78;44.62;100322.52;2467178;79;25646;-89
2021/03/17 19:28:16;;;;;;;6.80;5.05;;;;;;;10.77;44.61;100326.86;2448335;80;25625;-80
2021/03/17 19:31:38;;;;;;;5.45;4.53;;;;;;;10.77;44.62;100329.90;2448130;80;25685;-85
2021/03/17 19:35:03;;;;;;;5.45;4.37;;;;;;;10.75;44.62;100332.88;2448810;80;25658;-83